Time;durP1;ratioP1;P1;durP2;ratioP2;P2;SDS_P1;SDS_P2;PMS_P1;PMS_P2;Temp;Humidity;BMP_temperature;BMP_pressure;BME280_temperature;BME280_humidity;BME280_pressure;Samples;Min_cycle;Max_cycle;Signal;HPM_P1;HPM_P2
2024/04/09 00:02:16;;;;;;;;;;;;;;;21.17;37.82;101250.86;102959;1292;64576;-78
2024/04/09 00:04:42;;;;;;;;;;;;;;;21.17;37.75;101249.09;102814;1295;74984;-79
2024/04/09 00:07:08;;;;;;;;;;;;;;;21.17;37.87;101248.55;103094;1295;63730;-79
2024/04/09 00:09:42;;;;;;;;;;;;;;;21.17;37.82;101250.50;102978;1294;63421;-78
2024/04/09 00:12:11;;;;;;;;;;;;;;;21.16;37.87;101247.66;103007;1291;71552;-79
2024/04/09 00:14:37;;;;;;;;;;;;;;;21.16;37.93;101247.48;102815;1295;76808;-78
2024/04/09 00:17:05;;;;;;;;;;;;;;;21.16;37.89;101245.70;103065;1291;62982;-79
2024/04/09 00:19:31;;;;;;;;;;;;;;;21.17;37.86;101242.81;103092;1291;62901;-79
2024/04/09 00:21:59;;;;;;;;;;;;;;;21.16;37.88;101239.27;103040;1293;72480;-79
2024/04/09 00:24:25;;;;;;;;;;;;;;;21.17;37.78;101238.00;103058;1290;76131;-79
2024/04/09 00:26:51;;;;;;;;;;;;;;;21.17;37.89;101240.31;102884;1295;63712;-78
2024/04/09 00:29:17;;;;;;;;;;;;;;;21.16;37.93;101240.89;102808;1293;64080;-78
2024/04/09 00:31:43;;;;;;;;;;;;;;;21.16;37.85;101241.08;103065;1295;64207;-79
2024/04/09 00:34:10;;;;;;;;;;;;;;;21.16;37.79;101238.19;103071;1295;63007;-79
2024/04/09 00:36:36;;;;;;;;;;;;;;;21.16;37.76;101234.65;102863;1295;63099;-78
2024/04/09 00:39:02;;;;;;;;;;;;;;;21.16;37.95;101235.55;102876;1295;62968;-79
2024/04/09 00:41:27;;;;;;;;;;;;;;;21.16;37.92;101231.42;102847;1294;63433;-79
2024/04/09 00:43:53;;;;;;;;;;;;;;;21.16;37.95;101233.73;103103;1295;63677;-77
2024/04/09 00:46:19;;;;;;;;;;;;;;;21.16;37.93;101238.77;103031;1290;75869;-77
2024/04/09 00:48:45;;;;;;;;;;;;;;;21.16;37.79;101237.89;103081;1295;63000;-78
2024/04/09 00:51:12;;;;;;;;;;;;;;;21.15;37.84;101237.38;103074;1290;63978;-79
2024/04/09 00:53:37;;;;;;;;;;;;;;;21.15;37.91;101236.30;102892;1295;63943;-78
2024/04/09 00:56:03;;;;;;;;;;;;;;;21.15;37.89;101239.53;103054;1289;63687;-78
2024/04/09 00:58:29;;;;;;;;;;;;;;;21.15;37.89;101239.34;102868;1297;63760;-78
2024/04/09 01:00:54;;;;;;;;;;;;;;;21.15;37.88;101236.69;102793;1297;63004;-78
2024/04/09 01:03:20;;;;;;;;;;;;;;;21.15;37.88;101238.81;102789;1295;64208;-78
2024/04/09 01:05:46;;;;;;;;;;;;;;;21.15;37.96;101235.95;102720;1293;72583;-79
2024/04/09 01:08:12;;;;;;;;;;;;;;;21.15;37.84;101232.04;102792;1298;63093;-79
2024/04/09 01:10:37;;;;;;;;;;;;;;;21.15;37.84;101235.44;102599;1297;63063;-79
2024/04/09 01:13:03;;;;;;;;;;;;;;;21.15;37.98;101236.15;102871;1297;63685;-78
2024/04/09 01:15:28;;;;;;;;;;;;;;;21.15;37.96;101237.77;102831;1298;63178;-77
2024/04/09 01:17:55;;;;;;;;;;;;;;;21.14;37.91;101238.14;102853;1298;63154;-77
2024/04/09 01:20:21;;;;;;;;;;;;;;;21.15;37.97;101236.16;102763;1297;76119;-77
2024/04/09 01:22:47;;;;;;;;;;;;;;;21.14;37.91;101234.73;102740;1299;63645;-78
2024/04/09 01:25:13;;;;;;;;;;;;;;;21.14;37.97;101239.05;102862;1298;64184;-78
2024/04/09 01:27:41;;;;;;;;;;;;;;;21.14;37.90;101240.29;102697;1298;64183;-78
2024/04/09 01:30:08;;;;;;;;;;;;;;;21.14;37.94;101237.96;102747;1298;63558;-79
2024/04/09 01:32:34;;;;;;;;;;;;;;;21.14;37.97;101240.48;102677;1298;63729;-78
2024/04/09 01:35:08;;;;;;;;;;;;;;;21.14;37.97;101241.58;102758;1292;63430;-78
2024/04/09 01:37:34;;;;;;;;;;;;;;;21.14;38.07;101241.55;102850;1297;72320;-78
2024/04/09 01:40:00;;;;;;;;;;;;;;;21.14;37.94;101243.18;103107;1290;63462;-78
2024/04/09 01:42:25;;;;;;;;;;;;;;;21.14;38.05;101239.25;102878;1295;63026;-79
2024/04/09 01:44:51;;;;;;;;;;;;;;;21.14;37.96;101238.73;102883;1295;62975;-79
2024/04/09 01:47:17;;;;;;;;;;;;;;;21.13;37.96;101238.41;102860;1296;63019;-79
2024/04/09 01:49:43;;;;;;;;;;;;;;;21.13;37.95;101237.48;102915;1291;63086;-79
2024/04/09 01:52:08;;;;;;;;;;;;;;;21.13;37.97;101237.48;102881;1295;76098;-79
2024/04/09 01:54:34;;;;;;;;;;;;;;;21.13;37.91;101236.95;103071;1301;63017;-78
2024/04/09 01:57:00;;;;;;;;;;;;;;;21.13;37.94;101240.77;102919;1290;63061;-78
2024/04/09 01:59:26;;;;;;;;;;;;;;;21.13;38.04;101241.97;103082;1291;63033;-78
2024/04/09 02:01:52;;;;;;;;;;;;;;;21.13;37.96;101239.67;103068;1294;62998;-77
2024/04/09 02:04:18;;;;;;;;;;;;;;;21.12;37.98;101239.52;102847;1294;63030;-77
2024/04/09 02:06:44;;;;;;;;;;;;;;;21.13;37.94;101240.56;103383;1289;63725;-78
2024/04/09 02:09:11;;;;;;;;;;;;;;;21.13;38.06;101241.28;102790;1292;62946;-79
2024/04/09 02:11:37;;;;;;;;;;;;;;;21.13;38.04;101242.00;102850;1295;71474;-77
2024/04/09 02:14:04;;;;;;;;;;;;;;;21.13;38.02;101239.33;103033;1292;64160;-77
2024/04/09 02:16:30;;;;;;;;;;;;;;;21.12;38.02;101239.70;102861;1290;63007;-79
2024/04/09 02:18:55;;;;;;;;;;;;;;;21.13;38.06;101239.88;102859;1290;63042;-77
2024/04/09 02:24:56;;;;;;;;;;;;;;;21.13;37.99;101244.17;101786;1290;75795;-78
2024/04/09 02:27:24;;;;;;;;;;;;;;;21.12;37.97;101244.73;102873;1300;63058;-79
2024/04/09 02:29:50;;;;;;;;;;;;;;;21.12;38.02;101240.98;103088;1294;63007;-79
2024/04/09 02:32:15;;;;;;;;;;;;;;;21.12;37.97;101242.96;102894;1291;63679;-79
2024/04/09 02:34:41;;;;;;;;;;;;;;;21.12;38.12;101243.52;103050;1294;63764;-79
2024/04/09 02:37:07;;;;;;;;;;;;;;;21.11;37.96;101240.34;102973;1294;63758;-79
2024/04/09 02:39:32;;;;;;;;;;;;;;;21.11;38.16;101243.35;102886;1294;63600;-79
2024/04/09 02:41:59;;;;;;;;;;;;;;;21.11;38.02;101241.77;103068;1294;63727;-79
2024/04/09 02:44:24;;;;;;;;;;;;;;;21.11;38.07;101246.06;103070;1291;64066;-79
2024/04/09 02:46:50;;;;;;;;;;;;;;;21.11;37.93;101241.77;102855;1294;63648;-77
2024/04/09 02:49:16;;;;;;;;;;;;;;;21.11;38.06;101240.52;102840;1292;63051;-76
2024/04/09 02:51:41;;;;;;;;;;;;;;;21.10;37.95;101239.45;103093;1290;62956;-78
2024/04/09 02:54:07;;;;;;;;;;;;;;;21.10;37.99;101238.40;103089;1294;62952;-78
2024/04/09 02:56:34;;;;;;;;;;;;;;;21.10;38.05;101237.16;103012;1292;62975;-78
2024/04/09 02:59:00;;;;;;;;;;;;;;;21.10;38.10;101239.47;102942;1291;64543;-78
2024/04/09 03:01:25;;;;;;;;;;;;;;;21.10;38.04;101239.83;103042;1291;63000;-79
2024/04/09 03:03:51;;;;;;;;;;;;;;;21.10;38.13;101237.15;103043;1294;63997;-79
2024/04/09 03:06:17;;;;;;;;;;;;;;;21.10;38.18;101240.22;103063;1295;64624;-78
2024/04/09 03:08:42;;;;;;;;;;;;;;;21.09;38.12;101240.95;102902;1294;63117;-78
2024/04/09 03:11:16;;;;;;;;;;;;;;;21.10;38.13;101240.58;102802;1294;76021;-78
2024/04/09 03:13:44;;;;;;;;;;;;;;;21.09;38.03;101240.06;103157;1291;63610;-77
2024/04/09 03:16:33;;;;;;;;;;;;;;;21.09;38.04;101242.04;102888;1290;62975;-78
2024/04/09 03:18:59;;;;;;;;;;;;;;;21.09;38.03;101240.77;102614;1295;72328;-79
2024/04/09 03:21:24;;;;;;;;;;;;;;;21.09;38.12;101239.55;102629;1294;63175;-79
2024/04/09 03:23:50;;;;;;;;;;;;;;;21.09;38.23;101240.64;102627;1298;63191;-79
2024/04/09 03:26:16;;;;;;;;;;;;;;;21.09;38.21;101244.55;102513;1294;63192;-79
2024/04/09 03:28:41;;;;;;;;;;;;;;;21.08;38.16;101242.96;102476;1294;63337;-79
2024/04/09 03:31:07;;;;;;;;;;;;;;;21.09;38.15;101246.53;102454;1294;64284;-77
2024/04/09 03:33:33;;;;;;;;;;;;;;;21.09;38.13;101248.16;102581;1294;75906;-79
2024/04/09 03:35:59;;;;;;;;;;;;;;;21.08;38.22;101251.58;102467;1300;63255;-78
2024/04/09 03:38:24;;;;;;;;;;;;;;;21.09;38.17;101254.60;102385;1300;63012;-79
2024/04/09 03:40:56;;;;;;;;;;;;;;;21.08;38.12;101255.70;102625;1298;63286;-78
2024/04/09 03:43:21;;;;;;;;;;;;;;;21.08;38.21;101256.07;102408;1301;74980;-78
2024/04/09 03:46:00;;;;;;;;;;;;;;;21.07;38.28;101256.46;102580;1294;63162;-77
2024/04/09 03:48:26;;;;;;;;;;;;;;;21.07;38.24;101256.83;102661;1299;63191;-78
2024/04/09 03:50:51;;;;;;;;;;;;;;;21.08;38.27;101255.92;102337;1297;62999;-77
2024/04/09 03:53:17;;;;;;;;;;;;;;;21.07;38.18;101255.10;102521;1300;63010;-78
2024/04/09 03:55:52;;;;;;;;;;;;;;;21.05;38.40;101259.46;102384;1292;64279;-78
2024/04/09 03:58:17;;;;;;;;;;;;;;;21.05;38.24;101260.58;102835;1294;62910;-78
2024/04/09 04:00:53;;;;;;;;;;;;;;;21.04;38.07;101260.61;102831;1291;62989;-78
2024/04/09 04:03:19;;;;;;;;;;;;;;;21.04;38.11;101260.07;102835;1294;76099;-78
2024/04/09 04:05:49;;;;;;;;;;;;;;;21.04;38.17;101260.41;102881;1292;63022;-78
2024/04/09 04:08:15;;;;;;;;;;;;;;;21.04;38.20;101261.51;102845;1296;62977;-78
2024/04/09 04:10:40;;;;;;;;;;;;;;;21.04;38.17;101265.08;102837;1291;63096;-79
2024/04/09 04:13:08;;;;;;;;;;;;;;;21.04;38.20;101266.70;103008;1292;63893;-77
2024/04/09 04:15:34;;;;;;;;;;;;;;;21.03;38.19;101264.23;102897;1292;62970;-78
2024/04/09 04:18:00;;;;;;;;;;;;;;;21.03;38.18;101262.48;102906;1294;62936;-78
2024/04/09 04:20:26;;;;;;;;;;;;;;;21.03;38.20;101260.88;103354;1292;62901;-78
2024/04/09 04:22:51;;;;;;;;;;;;;;;21.03;38.21;101259.81;103277;1293;63010;-77
2024/04/09 04:25:17;;;;;;;;;;;;;;;21.02;38.24;101261.82;103443;1291;63178;-77
2024/04/09 04:27:44;;;;;;;;;;;;;;;21.01;38.10;101263.48;103330;1291;63687;-78
2024/04/09 04:30:09;;;;;;;;;;;;;;;21.01;38.18;101264.25;103299;1291;63481;-77
2024/04/09 04:32:35;;;;;;;;;;;;;;;21.00;38.26;101264.81;103217;1293;63002;-78
2024/04/09 04:35:01;;;;;;;;;;;;;;;21.00;38.40;101267.54;103032;1292;62946;-77
2024/04/09 04:37:27;;;;;;;;;;;;;;;20.99;38.47;101267.95;102914;1290;63042;-78
2024/04/09 04:39:52;;;;;;;;;;;;;;;20.97;38.36;101267.16;103529;1289;63962;-79
2024/04/09 04:42:18;;;;;;;;;;;;;;;20.96;38.54;101268.11;103597;1291;63078;-80
2024/04/09 04:44:44;;;;;;;;;;;;;;;20.94;38.37;101263.24;103483;1291;72298;-81
2024/04/09 04:47:10;;;;;;;;;;;;;;;20.93;38.50;101267.39;103419;1294;62887;-77
2024/04/09 04:49:35;;;;;;;;;;;;;;;20.91;38.47;101263.95;103301;1290;63027;-77
2024/04/09 04:52:01;;;;;;;;;;;;;;;20.88;38.28;101264.15;103348;1291;63061;-78
2024/04/09 04:54:27;;;;;;;;;;;;;;;20.84;38.13;101265.84;103334;1291;63023;-79
2024/04/09 04:56:52;;;;;;;;;;;;;;;20.80;38.35;101261.80;103707;1289;62940;-79
2024/04/09 04:59:18;;;;;;;;;;;;;;;20.77;38.38;101266.10;104214;1294;76005;-80
2024/04/09 05:01:43;;;;;;;;;;;;;;;20.74;38.35;101275.73;104643;1289;63019;-79
2024/04/09 05:04:09;;;;;;;;;;;;;;;20.72;38.32;101280.48;104793;1292;62990;-79
2024/04/09 05:06:34;;;;;;;;;;;;;;;20.71;38.36;101284.50;105046;1290;60875;-81
2024/04/09 05:09:00;;;;;;;;;;;;;;;20.72;38.39;101285.17;104872;1289;62829;-79
2024/04/09 05:11:25;;;;;;;;;;;;;;;20.72;38.41;101281.95;104540;1289;76331;-79
2024/04/09 05:13:52;;;;;;;;;;;;;;;20.73;38.47;101284.93;104797;1289;63639;-78
2024/04/09 05:16:20;;;;;;;;;;;;;;;20.73;38.40;101283.70;104692;1294;62786;-80
2024/04/09 05:18:46;;;;;;;;;;;;;;;20.72;38.56;101283.90;104524;1291;62796;-80
2024/04/09 05:21:12;;;;;;;;;;;;;;;20.73;38.46;101280.61;104398;1290;63013;-80
2024/04/09 05:23:38;;;;;;;;;;;;;;;20.75;38.66;101280.33;104656;1290;63355;-80
2024/04/09 05:26:03;;;;;;;;;;;;;;;20.77;38.52;101279.52;104473;1291;63008;-78
2024/04/09 05:28:29;;;;;;;;;;;;;;;20.78;38.49;101278.20;104633;1291;60783;-79
2024/04/09 05:30:55;;;;;;;;;;;;;;;20.79;38.53;101277.40;104506;1291;72533;-77
2024/04/09 05:33:20;;;;;;;;;;;;;;;20.80;38.47;101284.50;104613;1289;62914;-80
2024/04/09 05:35:46;;;;;;;;;;;;;;;20.83;38.48;101286.65;104498;1289;63080;-79
2024/04/09 05:38:12;;;;;;;;;;;;;;;20.83;38.48;101280.72;106089;1290;60580;-79
2024/04/09 05:40:37;;;;;;;;;;;;;;;20.85;38.39;101281.67;105937;1291;60867;-80
2024/04/09 05:43:03;;;;;;;;;;;;;;;20.86;38.63;101279.86;105900;1292;60490;-80
2024/04/09 05:45:28;;;;;;;;;;;;;;;20.87;38.48;101281.92;105977;1290;59999;-79
2024/04/09 05:47:54;;;;;;;;;;;;;;;20.89;38.56;101282.25;105932;1289;61290;-79
2024/04/09 05:50:19;;;;;;;;;;;;;;;20.91;38.41;101284.35;105977;1289;61208;-77
2024/04/09 05:52:45;;;;;;;;;;;;;;;20.92;38.58;101282.69;105884;1289;60415;-79
2024/04/09 05:55:12;;;;;;;;;;;;;;;20.92;38.39;101286.61;105853;1290;61347;-79
2024/04/09 05:57:39;;;;;;;;;;;;;;;20.90;38.50;101288.86;105922;1291;60903;-79
2024/04/09 06:00:08;;;;;;;;;;;;;;;20.91;38.51;101285.59;105925;1292;61153;-80
2024/04/09 06:02:34;;;;;;;;;;;;;;;20.91;38.58;101287.24;105708;1294;60602;-81
2024/04/09 06:04:59;;;;;;;;;;;;;;;20.85;38.66;101291.33;105675;1293;61521;-82
2024/04/09 06:07:30;;;;;;;;;;;;;;;20.84;38.58;101296.04;105805;1293;60563;-80
2024/04/09 06:10:00;;;;;;;;;;;;;;;20.85;38.64;101299.92;105828;1293;60234;-78
2024/04/09 06:12:26;;;;;;;;;;;;;;;20.87;38.71;101298.03;105866;1293;72283;-79
2024/04/09 06:14:53;;;;;;;;;;;;;;;20.91;38.81;101304.01;105778;1293;60628;-80
2024/04/09 06:17:18;;;;;;;;;;;;;;;20.94;39.00;101304.54;105829;1293;60362;-79
2024/04/09 06:19:44;;;;;;;;;;;;;;;20.98;39.00;101300.02;104813;1294;63098;-79
2024/04/09 06:22:10;;;;;;;;;;;;;;;20.99;38.87;101302.31;104283;1293;61439;-79
2024/04/09 06:24:35;;;;;;;;;;;;;;;20.99;38.91;101308.16;104257;1294;62857;-79
2024/04/09 06:27:01;;;;;;;;;;;;;;;21.01;38.78;101304.48;104345;1292;76290;-80
2024/04/09 06:29:26;;;;;;;;;;;;;;;21.03;38.95;101307.77;103885;1293;62877;-80
2024/04/09 06:31:53;;;;;;;;;;;;;;;21.04;38.87;101304.84;104132;1294;63069;-80
2024/04/09 06:34:19;;;;;;;;;;;;;;;21.05;38.91;101304.08;104298;1291;62921;-79
2024/04/09 06:36:44;;;;;;;;;;;;;;;21.05;38.68;101308.67;104156;1290;62947;-78
2024/04/09 06:39:13;;;;;;;;;;;;;;;21.06;38.61;101311.30;104263;1289;62986;-81
2024/04/09 06:41:39;;;;;;;;;;;;;;;21.07;38.74;101308.95;103875;1293;62982;-80
2024/04/09 06:44:05;;;;;;;;;;;;;;;21.07;38.60;101309.62;104041;1293;62921;-81
2024/04/09 06:46:31;;;;;;;;;;;;;;;21.08;38.48;101307.60;104122;1293;63360;-79
2024/04/09 06:48:59;;;;;;;;;;;;;;;21.09;38.56;101308.09;104078;1293;61416;-80
2024/04/09 06:51:24;;;;;;;;;;;;;;;21.10;38.48;101304.45;104459;1294;62947;-79
2024/04/09 06:53:50;;;;;;;;;;;;;;;21.10;38.34;101304.95;104549;1293;62950;-81
2024/04/09 06:56:16;;;;;;;;;;;;;;;21.10;38.34;101302.70;104522;1293;60891;-81
2024/04/09 06:58:42;;;;;;;;;;;;;;;21.05;38.33;101304.97;104126;1293;62903;-79
2024/04/09 07:01:08;;;;;;;;;;;;;;;21.05;38.28;101306.75;104059;1294;62905;-79
2024/04/09 07:03:34;;;;;;;;;;;;;;;21.04;38.45;101304.06;104433;1293;63081;-81
2024/04/09 07:05:59;;;;;;;;;;;;;;;21.03;38.23;101305.44;104693;1292;62882;-79
2024/04/09 07:08:25;;;;;;;;;;;;;;;21.03;38.25;101307.04;104509;1294;62943;-79
2024/04/09 07:10:55;;;;;;;;;;;;;;;21.02;38.03;101309.27;104516;1292;64995;-80
2024/04/09 07:13:21;;;;;;;;;;;;;;;20.99;38.01;101315.91;106023;1290;60433;-79
2024/04/09 07:15:47;;;;;;;;;;;;;;;21.02;38.12;101316.08;106080;1290;60265;-79
2024/04/09 07:18:13;;;;;;;;;;;;;;;21.09;38.36;101312.38;104699;1290;65569;-80
2024/04/09 07:20:38;;;;;;;;;;;;;;;21.12;38.21;101309.71;104410;1289;60899;-79
2024/04/09 07:23:04;;;;;;;;;;;;;;;21.14;38.29;101305.81;104681;1289;60855;-78
2024/04/09 07:25:29;;;;;;;;;;;;;;;21.16;38.22;101300.86;104358;1291;62974;-79
2024/04/09 07:27:56;;;;;;;;;;;;;;;21.18;38.31;101302.17;104481;1294;72426;-78
2024/04/09 07:30:21;;;;;;;;;;;;;;;21.20;38.38;101299.14;104754;1291;63004;-80
2024/04/09 07:32:47;;;;;;;;;;;;;;;21.23;38.32;101298.83;104607;1290;63280;-79
2024/04/09 07:35:14;;;;;;;;;;;;;;;21.25;38.33;101300.29;104397;1292;62883;-78
2024/04/09 07:37:40;;;;;;;;;;;;;;;21.27;38.31;101297.67;104522;1290;62877;-80
2024/04/09 07:40:07;;;;;;;;;;;;;;;21.28;38.40;101299.17;104535;1289;63007;-78
2024/04/09 07:42:33;;;;;;;;;;;;;;;21.31;38.25;101298.46;104012;1290;62902;-81
2024/04/09 07:44:59;;;;;;;;;;;;;;;21.33;38.27;101297.10;104002;1290;63119;-80
2024/04/09 07:47:24;;;;;;;;;;;;;;;21.34;38.12;101296.65;104434;1291;62928;-78
2024/04/09 07:49:50;;;;;;;;;;;;;;;21.36;38.13;101298.16;104538;1291;62921;-81
2024/04/09 07:52:16;;;;;;;;;;;;;;;21.36;38.05;101292.23;104753;1290;63011;-80
2024/04/09 07:54:42;;;;;;;;;;;;;;;21.38;37.94;101294.11;104818;1289;63023;-79
2024/04/09 07:57:14;;;;;;;;;;;;;;;21.37;37.78;101297.19;104866;1289;61968;-80
2024/04/09 07:59:40;;;;;;;;;;;;;;;21.37;37.78;101292.71;105815;1292;72156;-80
2024/04/09 08:02:05;;;;;;;;;;;;;;;21.39;37.57;101297.91;105699;1295;60780;-80
2024/04/09 08:04:32;;;;;;;;;;;;;;;21.41;37.45;101293.86;105698;1293;60528;-78
2024/04/09 08:06:57;;;;;;;;;;;;;;;21.42;37.47;101290.94;104623;1293;63085;-80
2024/04/09 08:09:23;;;;;;;;;;;;;;;21.42;37.37;101288.43;104513;1293;60723;-80
2024/04/09 08:11:49;;;;;;;;;;;;;;;21.40;37.22;101290.50;104598;1294;63005;-77
2024/04/09 08:14:15;;;;;;;;;;;;;;;21.41;37.27;101287.94;105872;1292;60185;-78
2024/04/09 08:16:41;;;;;;;;;;;;;;;21.43;37.12;101291.21;105078;1294;63038;-81
2024/04/09 08:19:07;;;;;;;;;;;;;;;21.45;37.06;101287.55;104125;1294;63101;-79
2024/04/09 08:21:33;;;;;;;;;;;;;;;21.47;36.81;101289.95;104452;1294;63064;-79
2024/04/09 08:23:58;;;;;;;;;;;;;;;21.45;36.46;101286.80;104417;1292;60734;-80
2024/04/09 08:26:24;;;;;;;;;;;;;;;21.45;36.26;101286.88;104388;1294;60760;-80
2024/04/09 08:28:50;;;;;;;;;;;;;;;21.44;36.16;101282.05;104275;1293;62945;-78
2024/04/09 08:31:17;;;;;;;;;;;;;;;21.42;35.83;101285.23;104476;1290;60704;-79
2024/04/09 08:33:42;;;;;;;;;;;;;;;21.42;35.74;101283.60;104150;1290;63464;-78
2024/04/09 08:36:08;;;;;;;;;;;;;;;21.41;35.55;101279.71;104389;1292;63007;-78
2024/04/09 08:38:33;;;;;;;;;;;;;;;21.39;35.33;101280.94;104549;1290;63016;-78
2024/04/09 08:40:59;;;;;;;;;;;;;;;21.37;34.97;101277.17;104334;1291;62880;-79
2024/04/09 08:43:26;;;;;;;;;;;;;;;21.36;35.10;101277.54;104025;1291;62827;-79
2024/04/09 08:45:52;;;;;;;;;;;;;;;21.36;35.12;101282.78;104331;1289;72577;-80
2024/04/09 08:48:18;;;;;;;;;;;;;;;21.36;35.09;101279.19;104625;1292;62816;-81
2024/04/09 08:50:46;;;;;;;;;;;;;;;21.35;35.12;101275.98;104669;1290;60796;-80
2024/04/09 08:53:12;;;;;;;;;;;;;;;21.37;35.01;101274.11;104851;1291;62789;-81
2024/04/09 08:55:46;;;;;;;;;;;;;;;21.40;35.40;101268.88;104961;1294;62946;-79
2024/04/09 08:58:12;;;;;;;;;;;;;;;21.46;35.48;101264.36;104970;1290;76346;-80
2024/04/09 09:00:38;;;;;;;;;;;;;;;21.51;35.60;101259.01;104951;1291;62920;-80
2024/04/09 09:03:04;;;;;;;;;;;;;;;21.55;35.54;101263.26;105068;1291;63009;-81
2024/04/09 09:05:29;;;;;;;;;;;;;;;21.57;35.49;101261.70;105097;1289;62879;-80
2024/04/09 09:08:02;;;;;;;;;;;;;;;21.57;35.44;101263.68;105163;1291;62928;-81
2024/04/09 09:10:27;;;;;;;;;;;;;;;21.56;35.20;101261.07;105075;1291;62828;-80
2024/04/09 09:13:12;;;;;;;;;;;;;;;21.57;35.24;101263.89;105343;1291;62868;-81
2024/04/09 09:15:37;;;;;;;;;;;;;;;21.58;35.13;101266.33;105038;1290;72358;-81
2024/04/09 09:18:04;;;;;;;;;;;;;;;21.57;34.98;101262.23;105214;1291;62907;-80
2024/04/09 09:20:29;;;;;;;;;;;;;;;21.55;34.79;101260.61;104851;1291;62901;-78
2024/04/09 09:22:55;;;;;;;;;;;;;;;21.54;34.83;101257.08;104795;1290;62969;-79
2024/04/09 09:25:25;;;;;;;;;;;;;;;21.53;34.80;101261.95;104811;1291;63623;-79
2024/04/09 09:28:06;;;;;;;;;;;;;;;21.48;34.59;101262.26;104929;1294;75961;-80
2024/04/09 09:30:39;;;;;;;;;;;;;;;21.42;34.20;101257.09;104624;1291;60888;-78
2024/04/09 09:33:05;;;;;;;;;;;;;;;21.40;34.16;101259.23;104479;1290;62864;-80
2024/04/09 09:35:35;;;;;;;;;;;;;;;21.39;34.14;101256.09;104477;1289;62876;-79
2024/04/09 09:38:01;;;;;;;;;;;;;;;21.37;34.11;101262.45;104412;1289;76426;-79
2024/04/09 09:40:28;;;;;;;;;;;;;;;21.37;34.05;101263.33;104355;1290;62981;-79
2024/04/09 09:42:54;;;;;;;;;;;;;;;21.39;34.19;101258.92;104596;1291;62796;-79
2024/04/09 09:45:19;;;;;;;;;;;;;;;21.42;34.41;101258.54;104812;1291;63034;-82
2024/04/09 09:47:48;;;;;;;;;;;;;;;21.44;34.51;101257.14;104728;1289;76348;-78
2024/04/09 09:50:13;;;;;;;;;;;;;;;21.44;34.43;101249.09;104736;1291;62914;-81
2024/04/09 09:52:45;;;;;;;;;;;;;;;21.44;34.51;101253.06;104892;1290;62889;-79
2024/04/09 09:55:13;;;;;;;;;;;;;;;21.45;34.61;101249.08;104446;1290;72592;-78
2024/04/09 09:57:40;;;;;;;;;;;;;;;21.46;34.58;101252.89;104649;1290;75968;-80
2024/04/09 10:00:09;;;;;;;;;;;;;;;21.48;34.71;101250.65;106021;1289;60849;-81
2024/04/09 10:02:36;;;;;;;;;;;;;;;21.51;35.04;101249.16;105925;1291;60337;-79
2024/04/09 10:05:02;;;;;;;;;;;;;;;21.55;35.18;101243.05;106090;1290;72530;-79
2024/04/09 10:07:29;;;;;;;;;;;;;;;21.59;35.31;101241.15;105050;1290;60730;-80
2024/04/09 10:09:54;;;;;;;;;;;;;;;21.62;35.37;101242.76;105059;1289;62862;-79
2024/04/09 10:12:20;;;;;;;;;;;;;;;21.63;35.36;101234.61;105130;1291;62881;-78
2024/04/09 10:14:56;;;;;;;;;;;;;;;21.63;35.16;101230.36;105376;1290;62836;-78
2024/04/09 10:17:22;;;;;;;;;;;;;;;21.63;35.19;101229.11;105909;1291;76299;-77
2024/04/09 10:19:48;;;;;;;;;;;;;;;21.62;35.14;101227.58;105999;1291;60647;-80
2024/04/09 10:22:15;;;;;;;;;;;;;;;21.62;35.25;101229.52;105650;1290;60228;-80
2024/04/09 10:24:40;;;;;;;;;;;;;;;21.63;35.11;101222.11;104662;1290;62911;-80
2024/04/09 10:27:06;;;;;;;;;;;;;;;21.63;35.25;101225.33;104515;1291;63023;-80
2024/04/09 10:29:31;;;;;;;;;;;;;;;21.61;35.11;101224.03;104664;1291;62981;-79
2024/04/09 10:31:57;;;;;;;;;;;;;;;21.58;34.98;101222.61;104619;1290;63012;-78
2024/04/09 10:34:23;;;;;;;;;;;;;;;21.57;34.95;101217.66;104500;1289;62901;-78
2024/04/09 10:36:49;;;;;;;;;;;;;;;21.57;34.97;101215.30;104719;1294;63012;-78
2024/04/09 10:39:16;;;;;;;;;;;;;;;21.57;35.05;101212.79;104243;1289;63359;-79
2024/04/09 10:41:41;;;;;;;;;;;;;;;21.57;34.90;101211.77;104412;1290;63500;-79
2024/04/09 10:44:09;;;;;;;;;;;;;;;21.56;35.03;101206.77;104497;1289;61625;-79
2024/04/09 10:46:34;;;;;;;;;;;;;;;21.57;35.03;101206.52;104217;1289;62977;-78
2024/04/09 10:49:00;;;;;;;;;;;;;;;21.56;34.82;101204.08;104146;1293;62915;-79
2024/04/09 10:51:25;;;;;;;;;;;;;;;21.56;34.90;101203.21;104085;1291;63464;-79
2024/04/09 10:54:00;;;;;;;;;;;;;;;21.56;34.87;101198.77;104165;1290;63611;-80
2024/04/09 10:56:25;;;;;;;;;;;;;;;21.55;35.03;101200.04;104146;1289;62931;-80
2024/04/09 10:58:51;;;;;;;;;;;;;;;21.56;34.83;101200.19;104506;1290;63027;-80
2024/04/09 11:01:17;;;;;;;;;;;;;;;21.56;35.11;101190.48;104815;1291;62873;-80
2024/04/09 11:03:43;;;;;;;;;;;;;;;21.56;34.93;101194.08;105081;1290;63817;-79
2024/04/09 11:06:12;;;;;;;;;;;;;;;21.57;34.85;101190.63;104941;1291;62851;-81
2024/04/09 11:08:38;;;;;;;;;;;;;;;21.57;34.75;101190.95;104908;1291;62795;-80
2024/04/09 11:11:04;;;;;;;;;;;;;;;21.55;34.66;101185.39;104871;1290;63023;-79
2024/04/09 11:13:31;;;;;;;;;;;;;;;21.54;34.83;101187.04;104982;1291;60756;-80
2024/04/09 11:15:57;;;;;;;;;;;;;;;21.54;34.77;101183.29;105153;1294;61099;-80
2024/04/09 11:18:23;;;;;;;;;;;;;;;21.53;34.72;101177.06;104972;1289;62925;-79
2024/04/09 11:20:55;;;;;;;;;;;;;;;21.50;34.44;101169.58;105078;1291;63001;-81
2024/04/09 11:23:25;;;;;;;;;;;;;;;21.49;34.57;101165.33;104990;1291;62796;-79
2024/04/09 11:25:52;;;;;;;;;;;;;;;21.49;34.61;101166.59;105983;1289;61007;-79
2024/04/09 11:28:18;;;;;;;;;;;;;;;21.46;34.49;101159.07;106101;1290;72775;-79
2024/04/09 11:30:46;;;;;;;;;;;;;;;21.46;34.53;101152.48;106112;1291;60286;-79
2024/04/09 11:33:15;;;;;;;;;;;;;;;21.45;34.49;101149.45;104528;1290;62956;-78
2024/04/09 11:35:42;;;;;;;;;;;;;;;21.47;34.49;101146.67;104572;1291;60676;-81
2024/04/09 11:38:09;;;;;;;;;;;;;;;21.47;34.60;101147.73;104249;1290;63036;-80
2024/04/09 11:40:34;;;;;;;;;;;;;;;21.48;34.57;101136.41;104272;1291;62899;-79
2024/04/09 11:43:00;;;;;;;;;;;;;;;21.47;34.38;101134.70;104188;1291;62921;-81
2024/04/09 11:46:00;;;;;;;;;;;;;;;21.46;34.39;101133.52;104281;1289;65662;-80
2024/04/09 11:48:19;;;;;;;;;;;;;;;21.44;34.12;101133.97;104380;1290;72520;-77
2024/04/09 11:50:44;;;;;;;;;;;;;;;21.44;34.18;101124.46;105524;1291;62859;-80
2024/04/09 11:53:10;;;;;;;;;;;;;;;21.46;34.26;101122.02;104689;1291;62883;-79
2024/04/09 11:55:35;;;;;;;;;;;;;;;21.47;34.21;101116.74;104727;1289;63047;-80
2024/04/09 11:58:01;;;;;;;;;;;;;;;21.47;34.18;101112.80;104753;1289;61756;-80
2024/04/09 12:00:27;;;;;;;;;;;;;;;21.47;34.22;101113.32;104906;1291;60699;-80
2024/04/09 12:02:52;;;;;;;;;;;;;;;21.47;34.17;101108.91;105048;1291;77210;-79
2024/04/09 12:05:18;;;;;;;;;;;;;;;21.48;34.18;101107.59;104157;1291;62997;-80
2024/04/09 12:07:44;;;;;;;;;;;;;;;21.48;34.17;101104.48;104916;1289;61732;-79
2024/04/09 12:10:09;;;;;;;;;;;;;;;21.51;34.39;101099.33;105125;1291;62985;-79
2024/04/09 12:12:35;;;;;;;;;;;;;;;21.52;34.30;101098.55;105537;1289;62909;-81
2024/04/09 12:15:00;;;;;;;;;;;;;;;21.52;34.29;101101.89;105446;1294;62907;-81
2024/04/09 12:17:26;;;;;;;;;;;;;;;21.53;34.31;101096.34;105331;1292;60540;-79
2024/04/09 12:19:51;;;;;;;;;;;;;;;21.53;34.33;101091.46;105171;1291;61307;-81
2024/04/09 12:22:18;;;;;;;;;;;;;;;21.53;34.24;101085.91;105023;1291;60733;-80
2024/04/09 12:24:44;;;;;;;;;;;;;;;21.57;34.44;101080.46;105085;1291;60343;-79
2024/04/09 12:27:09;;;;;;;;;;;;;;;21.62;34.66;101082.86;104872;1291;62921;-80
2024/04/09 12:29:35;;;;;;;;;;;;;;;21.67;34.92;101083.02;104339;1291;63656;-78